createdAt,value
2023-08-25T00:01:04.900Z,79.28
2023-08-25T00:03:58.392Z,79.11
2023-08-25T00:06:37.041Z,79.53
2023-08-25T00:10:16.077Z,79.48
2023-08-25T00:12:52.196Z,79.96
2023-08-25T00:15:56.357Z,79.81
2023-08-25T00:18:55.240Z,79.57
2023-08-25T00:21:27.299Z,80.59
2023-08-25T00:24:08.328Z,80.00
2023-08-25T00:27:43.340Z,80.39
2023-08-25T00:30:18.009Z,80.44
2023-08-25T00:33:05.033Z,79.99
2023-08-25T00:35:48.332Z,80.22
2023-08-25T00:38:27.232Z,80.11
2023-08-25T00:41:08.079Z,80.21
2023-08-25T00:43:45.736Z,80.04
2023-08-25T00:46:25.648Z,80.13
2023-08-25T00:49:02.171Z,80.60
2023-08-25T00:51:37.601Z,80.37
2023-08-25T00:55:00.482Z,80.77
2023-08-25T00:57:54.856Z,81.66
2023-08-25T01:01:41.980Z,81.75
2023-08-25T01:04:23.544Z,81.99
2023-08-25T01:06:59.411Z,82.35
2023-08-25T01:09:39.619Z,81.78
2023-08-25T01:12:31.116Z,82.04
2023-08-25T01:15:40.423Z,82.01
2023-08-25T01:18:29.739Z,81.89
2023-08-25T01:21:09.659Z,82.17
2023-08-25T01:24:16.615Z,82.50
2023-08-25T01:26:53.587Z,82.65
2023-08-25T01:29:36.180Z,82.03
2023-08-25T01:32:06.235Z,82.21
2023-08-25T01:34:40.616Z,82.07
2023-08-25T01:37:25.574Z,81.55
2023-08-25T01:40:25.205Z,81.67
2023-08-25T01:43:27.634Z,81.86
2023-08-25T01:46:39.099Z,82.09
2023-08-25T01:49:27.526Z,82.04
2023-08-25T01:52:09.210Z,82.42
2023-08-25T01:54:46.234Z,82.59
2023-08-25T01:57:19.547Z,82.36
2023-08-25T02:00:26.666Z,82.55
2023-08-25T02:03:19.452Z,82.82
2023-08-25T02:06:17.735Z,82.49
2023-08-25T02:08:52.626Z,82.22
2023-08-25T02:11:31.952Z,82.26
2023-08-25T02:14:31.839Z,82.24
2023-08-25T02:17:05.516Z,82.39
2023-08-25T02:19:42.905Z,82.36
2023-08-25T02:22:31.143Z,81.79
2023-08-25T02:25:09.476Z,81.64
2023-08-25T02:27:50.835Z,79.86
2023-08-25T02:30:28.524Z,78.61
2023-08-25T02:33:05.519Z,78.61
2023-08-25T02:35:58.686Z,79.27
2023-08-25T02:38:50.120Z,78.86
2023-08-25T02:41:33.348Z,79.03
2023-08-25T02:44:12.802Z,78.60
2023-08-25T02:46:50.345Z,77.29
2023-08-25T02:49:26.682Z,77.23
2023-08-25T02:52:01.440Z,75.14
2023-08-25T02:54:50.550Z,75.50
2023-08-25T02:57:36.612Z,74.19
2023-08-25T03:00:18.295Z,73.82
2023-08-25T03:03:49.580Z,73.90
2023-08-25T03:06:59.425Z,74.48
2023-08-25T03:10:02.994Z,74.60
2023-08-25T03:13:40.347Z,74.65
2023-08-25T03:16:25.159Z,74.38
2023-08-25T03:19:09.484Z,74.21
2023-08-25T03:22:10.099Z,74.76
2023-08-25T03:24:50.604Z,74.57
2023-08-25T03:27:23.962Z,74.55
2023-08-25T03:30:08.168Z,74.60
2023-08-25T03:33:09.322Z,74.85
2023-08-25T03:35:44.113Z,75.19
2023-08-25T03:38:50.602Z,73.43
2023-08-25T03:44:42.218Z,74.41
2023-08-25T03:47:33.942Z,74.85
2023-08-25T03:50:12.828Z,74.83
2023-08-25T03:53:07.861Z,72.34
2023-08-25T03:55:44.148Z,68.19
2023-08-25T03:58:21.296Z,66.04
2023-08-25T04:01:07.318Z,64.33
2023-08-25T04:04:04.550Z,61.71
2023-08-25T04:07:00.249Z,61.10
2023-08-25T04:10:41.133Z,60.67
2023-08-25T04:13:44.088Z,59.60
2023-08-25T04:16:38.457Z,60.26
2023-08-25T04:19:40.690Z,60.34
2023-08-25T04:22:21.396Z,61.59
2023-08-25T04:31:24.701Z,61.13
2023-08-25T04:37:58.124Z,59.08
2023-08-25T04:40:56.018Z,58.54
2023-08-25T04:43:37.137Z,58.60
2023-08-25T04:46:50.636Z,58.75
2023-08-25T04:51:03.948Z,59.34
2023-08-25T04:59:01.748Z,58.12
2023-08-25T05:01:49.177Z,57.70
2023-08-25T05:04:36.152Z,56.43
2023-08-25T05:08:35.639Z,56.30
2023-08-25T05:11:14.410Z,55.99
2023-08-25T05:15:19.084Z,55.93
2023-08-25T05:19:17.737Z,56.51
2023-08-25T05:21:51.868Z,55.16
2023-08-25T05:27:44.257Z,53.94
2023-08-25T05:31:22.996Z,53.63
2023-08-25T05:46:58.089Z,52.05
2023-08-25T05:50:50.947Z,52.01
2023-08-25T05:57:14.522Z,52.51
2023-08-25T06:01:03.825Z,52.33
2023-08-25T06:03:50.833Z,51.42
2023-08-25T06:06:44.910Z,51.69
2023-08-25T06:09:30.630Z,51.95
2023-08-25T06:16:23.044Z,50.82
2023-08-25T06:30:43.567Z,49.81
2023-08-25T06:34:14.313Z,50.21
2023-08-25T06:41:32.825Z,48.97
2023-08-25T06:53:08.599Z,48.67
2023-08-25T06:57:01.195Z,48.44
2023-08-25T07:00:40.499Z,47.42
2023-08-25T07:12:17.674Z,47.71
2023-08-25T07:15:00.222Z,48.01
2023-08-25T07:18:44.831Z,47.66
2023-08-25T07:22:17.228Z,47.66
2023-08-25T07:25:50.087Z,48.22
2023-08-25T07:28:59.201Z,48.23
2023-08-25T07:32:15.383Z,48.66
2023-08-25T07:35:21.286Z,49.00
2023-08-25T07:38:21.351Z,48.34
2023-08-25T07:41:50.006Z,48.00
2023-08-25T07:44:38.280Z,48.50
2023-08-25T07:51:56.053Z,48.27
2023-08-25T08:07:23.451Z,46.49
2023-08-25T08:10:09.023Z,46.90
2023-08-25T08:33:33.328Z,36.47
2023-08-25T08:36:57.719Z,35.20
2023-08-25T08:39:58.685Z,33.67
2023-08-25T08:42:57.131Z,35.35
2023-08-25T08:46:30.286Z,34.35
2023-08-25T08:49:09.832Z,33.26
2023-08-25T08:52:06.573Z,32.42
2023-08-25T08:59:46.133Z,30.05
2023-08-25T09:07:51.891Z,26.11
2023-08-25T09:12:02.388Z,27.38
2023-08-25T09:16:12.657Z,26.27
2023-08-25T09:24:12.630Z,27.07
2023-08-25T09:28:06.603Z,26.44
2023-08-25T09:53:38.894Z,21.65
2023-08-25T10:32:53.161Z,26.64
2023-08-25T10:40:29.690Z,31.62
2023-08-25T10:44:22.348Z,33.27
2023-08-25T10:51:47.566Z,35.17
2023-08-25T10:54:22.895Z,35.69
2023-08-25T11:06:47.685Z,36.11
2023-08-25T11:19:12.674Z,35.85
2023-08-25T11:22:36.935Z,36.31
2023-08-25T11:30:26.132Z,36.36
2023-08-25T11:34:01.130Z,36.83
2023-08-25T11:37:45.052Z,36.69
2023-08-25T11:40:30.239Z,37.00
2023-08-25T11:46:42.255Z,37.26
2023-08-25T11:50:35.170Z,36.91
2023-08-25T11:53:19.660Z,36.99
2023-08-25T12:00:00.424Z,36.67
2023-08-25T12:03:37.171Z,36.54
2023-08-25T12:06:11.260Z,36.21
2023-08-25T12:09:31.211Z,36.32
2023-08-25T12:18:57.479Z,36.31
2023-08-25T12:21:37.538Z,36.23
2023-08-25T12:24:18.200Z,36.15
2023-08-25T12:27:02.139Z,35.99
2023-08-25T12:34:33.307Z,35.74
2023-08-25T12:38:00.089Z,35.84
2023-08-25T12:42:10.149Z,35.88
2023-08-25T12:51:24.096Z,35.32
2023-08-25T12:58:52.220Z,35.50
2023-08-25T13:01:27.261Z,35.08
2023-08-25T13:05:19.577Z,35.47
2023-08-25T13:08:37.183Z,36.35
2023-08-25T13:11:35.850Z,36.48
2023-08-25T13:14:48.117Z,37.00
2023-08-25T13:17:47.600Z,36.92
2023-08-25T13:33:42.806Z,36.86
2023-08-25T13:37:08.979Z,37.52
2023-08-25T13:45:05.426Z,37.98
2023-08-25T13:52:27.677Z,38.67
2023-08-25T13:55:15.244Z,38.68
2023-08-25T13:58:56.036Z,38.65
2023-08-25T14:02:03.297Z,38.62
2023-08-25T14:05:06.831Z,38.63
2023-08-25T14:08:23.853Z,38.05
2023-08-25T14:19:41.641Z,37.64
2023-08-25T14:23:26.193Z,36.98
2023-08-25T14:26:56.118Z,37.26
2023-08-25T14:29:51.187Z,37.07
2023-08-25T14:33:04.321Z,37.27
2023-08-25T14:37:14.147Z,37.86
2023-08-25T14:39:55.435Z,37.74
2023-08-25T14:42:30.915Z,36.86
2023-08-25T14:46:09.283Z,37.26
2023-08-25T14:49:11.439Z,37.14
2023-08-25T14:51:52.150Z,36.82
2023-08-25T15:03:29.088Z,36.58
2023-08-25T15:07:13.476Z,36.54
2023-08-25T15:10:35.269Z,36.28
2023-08-25T15:13:43.009Z,36.38
2023-08-25T15:17:25.878Z,36.76
2023-08-25T15:20:21.770Z,37.35
2023-08-25T15:26:27.081Z,37.90
2023-08-25T15:29:27.878Z,37.99
2023-08-25T15:35:57.059Z,38.83
2023-08-25T15:41:30.552Z,39.00
2023-08-25T15:44:21.114Z,38.97
2023-08-25T15:47:13.107Z,38.87
2023-08-25T15:50:18.278Z,39.29
2023-08-25T15:53:06.941Z,39.20
2023-08-25T15:55:53.215Z,38.83
2023-08-25T15:58:55.890Z,39.08
2023-08-25T16:01:43.929Z,39.21
2023-08-25T16:04:27.003Z,39.07
2023-08-25T16:07:28.118Z,39.28
2023-08-25T16:10:27.991Z,39.16
2023-08-25T16:14:27.944Z,39.59
2023-08-25T16:17:40.950Z,40.38
2023-08-25T16:28:20.520Z,44.99
2023-08-25T16:38:40.020Z,48.16
2023-08-25T16:41:17.623Z,48.80
2023-08-25T16:44:20.398Z,49.11
2023-08-25T16:47:09.694Z,49.60
2023-08-25T16:49:47.106Z,49.93
2023-08-25T16:53:09.996Z,50.51
2023-08-25T16:56:07.911Z,50.91
2023-08-25T17:03:26.895Z,52.10
2023-08-25T17:06:21.789Z,52.10
2023-08-25T17:10:44.234Z,52.48
2023-08-25T17:27:25.458Z,53.98
2023-08-25T17:39:49.125Z,54.69
2023-08-25T17:46:25.344Z,55.10
2023-08-25T17:49:09.090Z,55.33
2023-08-25T17:52:07.175Z,55.67
2023-08-25T18:08:24.827Z,56.25
2023-08-25T18:11:22.085Z,55.73
2023-08-25T18:15:13.931Z,55.98
2023-08-25T18:19:26.413Z,55.85
2023-08-25T18:31:15.409Z,57.73
2023-08-25T18:35:13.774Z,58.14
2023-08-25T18:39:16.519Z,58.58
2023-08-25T18:50:45.905Z,59.09
2023-08-25T18:54:23.280Z,59.42
2023-08-25T18:56:55.448Z,59.45
2023-08-25T19:07:49.794Z,59.31
2023-08-25T19:11:18.473Z,59.68
2023-08-25T19:19:14.426Z,60.89
2023-08-25T19:23:32.369Z,60.42
2023-08-25T19:27:00.350Z,61.12
2023-08-25T19:33:59.129Z,61.83
2023-08-25T19:37:28.199Z,62.01
2023-08-25T19:57:34.646Z,65.33
2023-08-25T20:01:33.051Z,65.53
2023-08-25T20:12:10.391Z,68.02
2023-08-25T20:14:43.394Z,68.34
2023-08-25T20:17:31.076Z,68.14
2023-08-25T20:20:16.125Z,68.78
2023-08-25T20:22:52.896Z,69.05
2023-08-25T20:25:27.175Z,69.35
2023-08-25T20:28:37.043Z,69.24
2023-08-25T20:31:33.098Z,69.96
2023-08-25T20:35:03.820Z,70.43
2023-08-25T20:38:22.426Z,70.49
2023-08-25T20:41:28.668Z,71.09
2023-08-25T20:44:14.568Z,71.52
2023-08-25T20:47:57.001Z,71.76
2023-08-25T20:51:59.364Z,71.35
2023-08-25T21:02:26.735Z,71.18
2023-08-25T21:05:07.342Z,71.50
2023-08-25T21:12:04.431Z,71.89
2023-08-25T21:14:50.220Z,72.83
2023-08-25T21:18:03.530Z,72.24
2023-08-25T21:22:25.839Z,72.65
2023-08-25T21:30:32.903Z,74.31
2023-08-25T21:34:22.223Z,74.31
2023-08-25T21:37:27.865Z,74.36
2023-08-25T21:40:12.072Z,74.43
2023-08-25T21:43:55.537Z,74.27
2023-08-25T21:47:50.619Z,73.75
2023-08-25T22:04:28.716Z,73.72
2023-08-25T22:08:24.890Z,73.66
2023-08-25T22:12:04.279Z,74.28
2023-08-25T22:14:38.540Z,74.27
2023-08-25T22:17:27.436Z,74.27
2023-08-25T22:21:00.412Z,74.03
2023-08-25T22:23:59.004Z,74.36
2023-08-25T22:26:33.818Z,74.34
2023-08-25T22:30:18.215Z,75.14
2023-08-25T22:36:17.090Z,75.30
2023-08-25T22:42:34.861Z,75.28
2023-08-25T22:45:30.213Z,75.26
2023-08-25T22:53:32.167Z,75.29
2023-08-25T23:01:44.067Z,76.07
2023-08-25T23:04:36.968Z,76.23
2023-08-25T23:08:56.601Z,76.39
2023-08-25T23:16:01.270Z,76.73
2023-08-25T23:18:49.980Z,77.22
2023-08-25T23:25:22.097Z,76.86
2023-08-25T23:28:07.200Z,76.40
2023-08-25T23:30:46.774Z,76.97
2023-08-25T23:33:23.965Z,76.75
2023-08-25T23:36:45.587Z,77.15
2023-08-25T23:39:19.443Z,77.16
2023-08-25T23:43:04.467Z,77.39
2023-08-25T23:50:08.168Z,77.40
2023-08-25T23:53:58.103Z,77.09
2023-08-25T23:57:55.479Z,77.41
